Time;durP1;ratioP1;P1;durP2;ratioP2;P2;SDS_P1;SDS_P2;PMS_P1;PMS_P2;Temp;Humidity;BMP_temperature;BMP_pressure;BME280_temperature;BME280_humidity;BME280_pressure;Samples;Min_cycle;Max_cycle;Signal;HPM_P1;HPM_P2
2021/11/18 00:01:23;;;;;;;23.48;12.63;;;7.10;99.90;;;;;;5053219;28;20230;-60
2021/11/18 00:03:52;;;;;;;22.33;13.50;;;7.00;99.90;;;;;;5053661;28;20206;-61
2021/11/18 00:06:20;;;;;;;24.63;13.32;;;7.00;99.90;;;;;;5052073;28;20252;-62
2021/11/18 00:08:49;;;;;;;23.15;13.45;;;7.00;99.90;;;;;;5053725;28;20188;-60
2021/11/18 00:11:19;;;;;;;24.17;13.75;;;7.00;99.90;;;;;;5053142;28;20232;-60
2021/11/18 00:13:51;;;;;;;18.63;11.98;;;7.00;99.90;;;;;;5068902;28;20191;-61
2021/11/18 00:16:19;;;;;;;28.70;15.52;;;7.10;99.90;;;;;;5052460;28;20275;-61
2021/11/18 00:18:48;;;;;;;23.17;14.30;;;7.00;99.90;;;;;;5053171;28;20215;-60
2021/11/18 00:21:19;;;;;;;27.17;14.15;;;7.10;99.90;;;;;;5047506;28;20226;-60
2021/11/18 00:23:49;;;;;;;28.48;15.30;;;7.10;99.90;;;;;;5033275;28;20237;-62
2021/11/18 00:26:19;;;;;;;24.40;11.95;;;7.10;99.90;;;;;;5033598;28;20282;-62
2021/11/18 00:28:48;;;;;;;20.02;12.93;;;7.10;99.90;;;;;;5053184;28;20191;-60
2021/11/18 00:31:18;;;;;;;23.60;12.52;;;7.10;99.90;;;;;;5052338;28;20228;-60
2021/11/18 00:33:47;;;;;;;24.60;13.18;;;7.10;99.90;;;;;;5051818;28;20657;-60
2021/11/18 00:36:16;;;;;;;29.60;11.90;;;7.10;99.90;;;;;;5054196;28;20225;-61
2021/11/18 00:38:46;;;;;;;22.08;12.93;;;7.10;99.90;;;;;;5072849;28;20636;-60
2021/11/18 00:41:16;;;;;;;25.85;12.30;;;7.10;99.90;;;;;;5055076;28;20269;-59
2021/11/18 00:43:45;;;;;;;26.10;12.10;;;7.10;99.90;;;;;;5072615;28;20195;-61
2021/11/18 00:46:15;;;;;;;22.63;13.27;;;7.10;99.90;;;;;;5071949;28;20625;-60
2021/11/18 00:48:44;;;;;;;24.30;12.75;;;7.10;99.90;;;;;;5073141;28;20722;-59
2021/11/18 00:51:15;;;;;;;21.13;11.40;;;7.10;99.90;;;;;;5069057;28;20213;-59
2021/11/18 00:53:47;;;;;;;24.80;13.07;;;7.10;99.90;;;;;;5072648;28;20198;-60
2021/11/18 00:56:20;;;;;;;21.13;11.50;;;7.20;99.90;;;;;;5068236;28;20311;-61
2021/11/18 00:58:49;;;;;;;26.48;12.35;;;7.10;99.90;;;;;;5052337;28;20627;-60
2021/11/18 01:01:20;;;;;;;21.27;11.80;;;7.20;99.90;;;;;;5050470;28;20238;-60
2021/11/18 01:03:49;;;;;;;24.60;12.10;;;7.20;99.90;;;;;;5052346;28;20193;-61
2021/11/18 01:06:17;;;;;;;26.73;11.63;;;7.20;99.90;;;;;;5051715;28;20319;-61
2021/11/18 01:08:46;;;;;;;22.52;11.70;;;7.10;99.90;;;;;;5050971;28;20209;-60
2021/11/18 01:11:16;;;;;;;17.45;10.73;;;7.20;99.90;;;;;;5050321;28;20227;-60
2021/11/18 01:13:46;;;;;;;28.92;10.43;;;7.20;99.90;;;;;;5066882;28;20189;-61
2021/11/18 01:16:17;;;;;;;21.88;11.95;;;7.20;99.90;;;;;;5050348;28;20226;-61
2021/11/18 01:18:47;;;;;;;19.17;9.55;;;7.20;99.90;;;;;;5052262;28;20219;-60
2021/11/18 01:21:17;;;;;;;22.77;9.45;;;7.20;99.90;;;;;;5046421;28;20223;-60
2021/11/18 01:23:48;;;;;;;22.83;11.05;;;7.20;99.90;;;;;;5032110;28;20200;-61
2021/11/18 01:26:21;;;;;;;20.00;10.18;;;7.20;99.90;;;;;;5032411;28;20665;-62
2021/11/18 01:28:51;;;;;;;20.02;9.60;;;7.20;99.90;;;;;;5050894;28;20269;-60
2021/11/18 01:31:21;;;;;;;22.17;9.23;;;7.20;99.90;;;;;;5050422;28;20220;-59
2021/11/18 01:33:57;;;;;;;18.80;9.95;;;7.20;99.90;;;;;;5050536;28;20192;-62
2021/11/18 01:36:27;;;;;;;20.15;9.90;;;7.20;99.90;;;;;;5054409;28;20558;-60
2021/11/18 01:39:06;;;;;;;16.55;8.63;;;7.20;99.90;;;;;;5070568;28;20278;-60
2021/11/18 01:41:37;;;;;;;25.45;10.13;;;7.20;99.90;;;;;;5068972;28;20271;-59
2021/11/18 01:44:15;;;;;;;16.48;9.25;;;7.20;99.90;;;;;;5069616;28;20219;-62
2021/11/18 01:46:43;;;;;;;18.73;9.20;;;7.20;99.90;;;;;;5070862;28;20627;-61
2021/11/18 01:49:21;;;;;;;18.40;9.07;;;7.20;99.90;;;;;;5070312;28;20196;-61
2021/11/18 01:52:10;;;;;;;20.50;9.35;;;7.20;99.90;;;;;;5069603;28;20206;-61
2021/11/18 01:54:59;;;;;;;23.80;9.05;;;7.10;99.90;;;;;;5070085;28;20775;-61
2021/11/18 01:57:32;;;;;;;23.73;8.90;;;7.10;99.90;;;;;;5069072;28;20225;-61
2021/11/18 02:00:12;;;;;;;21.15;9.55;;;7.10;99.90;;;;;;5069915;28;20231;-60
2021/11/18 02:02:42;;;;;;;22.33;9.98;;;7.10;99.90;;;;;;5071721;28;20664;-60
2021/11/18 02:05:34;;;;;;;15.40;8.45;;;7.10;99.90;;;;;;5069303;28;20225;-61
2021/11/18 02:08:07;;;;;;;20.90;12.30;;;7.10;99.90;;;;;;5070444;28;20195;-61
2021/11/18 02:10:56;;;;;;;21.05;9.90;;;7.10;99.90;;;;;;5069876;28;20586;-61
2021/11/18 02:13:25;;;;;;;18.23;9.50;;;7.10;99.90;;;;;;5051938;28;20286;-61
2021/11/18 02:15:55;;;;;;;20.35;9.98;;;7.10;99.90;;;;;;5054932;28;20229;-61
2021/11/18 02:18:26;;;;;;;21.48;10.00;;;7.10;99.90;;;;;;5054555;28;20192;-61
2021/11/18 02:20:59;;;;;;;14.73;8.02;;;7.00;99.90;;;;;;5050447;28;20703;-59
2021/11/18 02:23:30;;;;;;;16.17;9.98;;;7.00;99.90;;;;;;5034508;28;20197;-61
2021/11/18 02:26:00;;;;;;;18.20;10.00;;;7.00;99.90;;;;;;5034499;28;20256;-61
2021/11/18 02:28:31;;;;;;;18.25;9.70;;;6.90;99.90;;;;;;5034650;28;20228;-61
2021/11/18 02:31:12;;;;;;;21.83;8.07;;;6.90;99.90;;;;;;5050457;28;20236;-59
2021/11/18 02:33:41;;;;;;;20.10;9.00;;;6.90;99.90;;;;;;5051017;28;20198;-61
2021/11/18 02:36:12;;;;;;;17.20;8.32;;;6.90;99.90;;;;;;5048663;28;20229;-61
2021/11/18 02:38:40;;;;;;;20.33;9.20;;;6.90;99.90;;;;;;5050831;28;20556;-61
2021/11/18 02:41:17;;;;;;;16.75;8.05;;;6.90;99.90;;;;;;5051479;28;20338;-59
2021/11/18 02:43:46;;;;;;;18.98;9.10;;;7.00;99.90;;;;;;5073940;28;20272;-61
2021/11/18 02:46:16;;;;;;;16.25;7.50;;;7.00;99.90;;;;;;5073136;28;20231;-61
2021/11/18 02:48:45;;;;;;;18.55;8.88;;;6.90;99.90;;;;;;5073687;28;20276;-62
2021/11/18 02:51:21;;;;;;;18.80;9.18;;;6.90;99.90;;;;;;5071634;28;20269;-60
2021/11/18 02:53:51;;;;;;;23.33;9.32;;;6.90;99.90;;;;;;5073627;28;20250;-61
2021/11/18 02:56:20;;;;;;;18.95;9.05;;;6.90;99.90;;;;;;5070351;28;20230;-61
2021/11/18 02:58:49;;;;;;;18.85;9.02;;;6.90;99.90;;;;;;5053539;28;20674;-62
2021/11/18 03:01:21;;;;;;;14.52;8.10;;;6.90;99.90;;;;;;5054031;28;20236;-60
2021/11/18 03:03:52;;;;;;;20.48;9.60;;;6.90;99.90;;;;;;5053417;28;20199;-62
2021/11/18 03:06:21;;;;;;;16.50;7.70;;;6.80;99.90;;;;;;5067627;28;20225;-62
2021/11/18 03:08:50;;;;;;;21.45;8.32;;;6.80;99.90;;;;;;5073473;28;20195;-61
2021/11/18 03:11:21;;;;;;;18.15;8.88;;;6.80;99.90;;;;;;5072575;28;20210;-61
2021/11/18 03:13:49;;;;;;;21.73;9.98;;;6.80;99.90;;;;;;5068495;28;20217;-61
2021/11/18 03:16:19;;;;;;;21.70;8.75;;;6.80;99.90;;;;;;5052533;28;20725;-61
2021/11/18 03:18:48;;;;;;;25.95;8.23;;;6.80;99.90;;;;;;5053269;28;20198;-61
2021/11/18 03:21:20;;;;;;;14.95;8.45;;;6.80;99.90;;;;;;5065700;28;20222;-60
2021/11/18 03:23:54;;;;;;;15.95;8.02;;;6.80;99.90;;;;;;5073173;28;20280;-61
2021/11/18 03:26:27;;;;;;;13.48;8.10;;;6.80;99.90;;;;;;5068390;28;20311;-61
2021/11/18 03:28:56;;;;;;;18.92;8.55;;;6.80;99.90;;;;;;5053273;28;20192;-61
2021/11/18 03:31:24;;;;;;;20.13;9.30;;;6.80;99.90;;;;;;5052701;28;20230;-59
2021/11/18 03:33:55;;;;;;;21.50;9.85;;;6.80;99.90;;;;;;5036321;28;20246;-61
2021/11/18 03:36:27;;;;;;;20.83;9.90;;;6.80;99.90;;;;;;5051693;28;20638;-62
2021/11/18 03:38:58;;;;;;;17.08;8.52;;;6.80;99.90;;;;;;5052778;28;20197;-62
2021/11/18 03:41:38;;;;;;;24.98;8.38;;;6.80;99.90;;;;;;5052069;28;20227;-60
2021/11/18 03:44:13;;;;;;;22.70;9.10;;;6.80;99.90;;;;;;5052197;28;20258;-62
2021/11/18 03:46:45;;;;;;;24.05;8.82;;;6.90;99.90;;;;;;5053920;28;20217;-61
2021/11/18 03:49:15;;;;;;;18.90;8.00;;;6.80;99.90;;;;;;5052145;28;20223;-61
2021/11/18 03:51:49;;;;;;;20.27;8.05;;;6.80;99.90;;;;;;5052720;28;20238;-60
2021/11/18 03:54:22;;;;;;;13.55;7.97;;;6.80;99.90;;;;;;5052031;28;20200;-60
2021/11/18 03:56:53;;;;;;;13.65;7.80;;;6.80;99.90;;;;;;5052358;28;20307;-61
2021/11/18 03:59:23;;;;;;;18.42;8.30;;;6.80;99.90;;;;;;5052058;28;20220;-60
2021/11/18 04:01:55;;;;;;;19.35;8.05;;;6.80;99.90;;;;;;5052644;28;20218;-60
2021/11/18 04:04:27;;;;;;;16.70;7.35;;;6.70;99.90;;;;;;5047966;28;20198;-60
2021/11/18 04:06:55;;;;;;;21.23;7.40;;;6.80;99.90;;;;;;5048265;28;20256;-61
2021/11/18 04:09:25;;;;;;;20.42;8.07;;;6.70;99.90;;;;;;5031746;28;20276;-61
2021/11/18 04:11:59;;;;;;;23.58;7.28;;;6.70;99.90;;;;;;5032453;28;20270;-59
2021/11/18 04:14:32;;;;;;;18.00;7.05;;;6.70;99.90;;;;;;5051399;28;20219;-62
2021/11/18 04:17:04;;;;;;;16.35;6.72;;;6.70;99.90;;;;;;5052392;28;20218;-60
2021/11/18 04:19:32;;;;;;;18.05;7.30;;;6.60;99.90;;;;;;5052997;28;20227;-61
2021/11/18 04:22:01;;;;;;;12.93;6.95;;;6.60;99.90;;;;;;5069860;28;20209;-60
2021/11/18 04:24:36;;;;;;;16.27;7.75;;;6.60;99.90;;;;;;5071182;28;20243;-61
2021/11/18 04:27:05;;;;;;;21.98;8.35;;;6.60;99.90;;;;;;5066238;28;20243;-61
2021/11/18 04:29:33;;;;;;;14.55;7.68;;;6.60;99.90;;;;;;5072801;28;20246;-61
2021/11/18 04:32:05;;;;;;;15.60;6.45;;;6.60;99.90;;;;;;5071763;28;20195;-60
2021/11/18 04:34:34;;;;;;;18.30;6.95;;;6.60;99.90;;;;;;5071110;28;20226;-61
2021/11/18 04:37:03;;;;;;;17.73;6.38;;;6.50;99.90;;;;;;5054851;28;20274;-62
2021/11/18 04:39:33;;;;;;;15.07;7.57;;;6.50;99.90;;;;;;5051203;28;20265;-61
2021/11/18 04:42:04;;;;;;;18.48;6.45;;;6.50;99.90;;;;;;5057987;28;20265;-59
2021/11/18 04:44:32;;;;;;;11.77;5.35;;;6.60;99.90;;;;;;5070867;28;20224;-61
2021/11/18 04:47:04;;;;;;;13.57;6.30;;;6.70;99.90;;;;;;5071608;28;20581;-62
2021/11/18 04:49:33;;;;;;;17.05;6.38;;;6.70;99.90;;;;;;5069240;28;20702;-60
2021/11/18 04:52:01;;;;;;;14.63;5.18;;;6.70;99.90;;;;;;5071785;28;20581;-59
2021/11/18 04:54:31;;;;;;;11.07;5.45;;;6.70;99.90;;;;;;5070551;28;20227;-62
2021/11/18 04:56:59;;;;;;;20.95;7.05;;;6.70;99.90;;;;;;5069764;28;20720;-61
2021/11/18 04:59:29;;;;;;;11.10;5.72;;;6.70;99.90;;;;;;5070846;28;20700;-61
2021/11/18 05:01:58;;;;;;;17.25;5.13;;;6.70;99.90;;;;;;5072401;28;20211;-60
2021/11/18 05:04:35;;;;;;;13.65;5.38;;;6.70;99.90;;;;;;5068889;28;20335;-61
2021/11/18 05:07:03;;;;;;;17.88;6.97;;;6.70;99.90;;;;;;5071408;28;20212;-61
2021/11/18 05:09:31;;;;;;;24.45;5.60;;;6.80;99.90;;;;;;5070471;28;20700;-60
2021/11/18 05:12:00;;;;;;;10.02;4.90;;;6.80;99.90;;;;;;5069598;28;20184;-60
2021/11/18 05:14:30;;;;;;;15.43;4.93;;;6.80;99.90;;;;;;5059945;28;20222;-60
2021/11/18 05:16:58;;;;;;;12.88;5.28;;;6.80;99.90;;;;;;5052489;28;20240;-62
2021/11/18 05:19:28;;;;;;;11.18;5.40;;;6.80;99.90;;;;;;5050608;28;20224;-61
2021/11/18 05:21:56;;;;;;;18.17;5.00;;;6.80;99.90;;;;;;5047257;28;20209;-60
2021/11/18 05:24:25;;;;;;;18.20;5.88;;;6.80;99.90;;;;;;5046710;28;20283;-60
2021/11/18 05:26:58;;;;;;;14.73;5.95;;;6.80;99.90;;;;;;5047226;28;20219;-61
2021/11/18 05:29:26;;;;;;;17.80;6.25;;;6.80;99.90;;;;;;5047162;28;20245;-61
2021/11/18 05:31:55;;;;;;;15.73;5.60;;;6.80;99.90;;;;;;5031157;28;20225;-61
2021/11/18 05:35:00;;;;;;;10.60;4.82;;;6.80;99.90;;;;;;5034878;28;20220;-61
2021/11/18 05:37:30;;;;;;;15.93;8.00;;;6.80;99.90;;;;;;5070677;28;20244;-60
2021/11/18 05:39:59;;;;;;;9.27;3.97;;;6.80;99.90;;;;;;5070101;28;20729;-61
2021/11/18 05:42:27;;;;;;;15.65;6.47;;;6.90;99.90;;;;;;5070418;28;20878;-59
2021/11/18 05:44:56;;;;;;;10.68;4.90;;;6.90;99.90;;;;;;5069988;28;20298;-59
2021/11/18 05:47:26;;;;;;;17.48;6.40;;;6.80;99.90;;;;;;5070347;28;20246;-61
2021/11/18 05:49:54;;;;;;;11.80;5.10;;;6.80;99.90;;;;;;5068494;28;20640;-61
2021/11/18 05:52:24;;;;;;;11.93;5.68;;;6.80;99.90;;;;;;5070681;28;20185;-60
2021/11/18 05:54:53;;;;;;;12.57;5.90;;;6.80;99.90;;;;;;5069946;28;20215;-60
2021/11/18 05:57:22;;;;;;;18.00;5.22;;;6.80;99.90;;;;;;5061531;28;20302;-61
2021/11/18 05:59:50;;;;;;;12.77;5.97;;;6.80;99.90;;;;;;5050141;28;20252;-61
2021/11/18 06:02:19;;;;;;;18.23;5.25;;;6.80;99.90;;;;;;5051503;28;20217;-59
2021/11/18 06:04:49;;;;;;;11.60;4.95;;;6.70;99.90;;;;;;5049289;28;20232;-60
2021/11/18 06:07:18;;;;;;;11.32;5.72;;;6.70;99.90;;;;;;5050390;28;20877;-62
2021/11/18 06:09:46;;;;;;;12.50;5.55;;;6.70;99.90;;;;;;5049913;28;20229;-61
2021/11/18 06:12:14;;;;;;;16.08;5.70;;;6.60;99.90;;;;;;5059536;28;20269;-60
2021/11/18 06:14:42;;;;;;;19.65;5.82;;;6.60;99.90;;;;;;5058637;28;20218;-61
2021/11/18 06:17:11;;;;;;;10.10;4.78;;;6.60;99.90;;;;;;5050035;28;20233;-62
2021/11/18 06:19:39;;;;;;;16.08;5.57;;;6.60;99.90;;;;;;5049609;28;20221;-60
2021/11/18 06:22:10;;;;;;;15.35;5.00;;;6.60;99.90;;;;;;5050300;28;20216;-59
2021/11/18 06:24:59;;;;;;;8.40;4.75;;;6.60;99.90;;;;;;5050831;28;20309;-59
2021/11/18 06:27:28;;;;;;;9.73;6.05;;;6.60;99.90;;;;;;5059620;28;20625;-61
2021/11/18 06:29:59;;;;;;;17.92;6.72;;;6.60;99.90;;;;;;5063686;28;20625;-61
2021/11/18 06:32:27;;;;;;;11.13;5.28;;;6.60;99.90;;;;;;5050189;28;20189;-60
2021/11/18 06:34:57;;;;;;;10.70;5.90;;;6.60;99.90;;;;;;5046451;28;20220;-60
2021/11/18 06:37:26;;;;;;;17.98;6.38;;;6.70;99.90;;;;;;5050108;28;20259;-61
2021/11/18 06:39:54;;;;;;;16.17;5.13;;;6.70;99.90;;;;;;5048998;28;20224;-62
2021/11/18 06:42:25;;;;;;;18.52;6.43;;;6.70;99.90;;;;;;5052955;28;20300;-60
2021/11/18 06:45:01;;;;;;;8.88;5.15;;;6.80;99.90;;;;;;5049176;28;20713;-60
2021/11/18 06:47:30;;;;;;;9.55;5.25;;;6.80;99.90;;;;;;5049971;28;20223;-61
2021/11/18 06:50:00;;;;;;;11.70;5.55;;;6.80;99.90;;;;;;5049486;28;20250;-60
2021/11/18 06:52:30;;;;;;;15.25;5.95;;;6.80;99.90;;;;;;5049340;28;20201;-60
2021/11/18 06:54:58;;;;;;;13.20;5.68;;;6.90;99.90;;;;;;5048931;28;20231;-60
2021/11/18 06:57:26;;;;;;;14.63;5.45;;;6.90;99.90;;;;;;5049261;28;20237;-61
2021/11/18 06:59:57;;;;;;;15.38;6.63;;;6.90;99.90;;;;;;5049610;28;20223;-62
2021/11/18 07:02:27;;;;;;;14.52;6.13;;;6.90;99.90;;;;;;5053725;28;20291;-60
2021/11/18 07:04:56;;;;;;;11.30;5.78;;;6.90;99.90;;;;;;5056644;28;20270;-60
2021/11/18 07:07:24;;;;;;;13.00;6.78;;;6.80;99.90;;;;;;5073657;28;20218;-62
2021/11/18 07:10:15;;;;;;;23.48;6.32;;;6.80;99.90;;;;;;5073012;28;20346;-62
2021/11/18 07:13:05;;;;;;;8.80;6.78;;;6.80;99.90;;;;;;5071696;28;20564;-60
2021/11/18 07:15:33;;;;;;;13.23;6.10;;;6.80;99.90;;;;;;5072066;28;20223;-61
2021/11/18 07:18:06;;;;;;;13.45;6.35;;;6.70;99.90;;;;;;5069325;28;20199;-61
2021/11/18 07:20:34;;;;;;;8.70;4.82;;;6.70;99.90;;;;;;5048575;28;20650;-60
2021/11/18 07:23:06;;;;;;;13.85;5.93;;;6.80;99.90;;;;;;5033405;28;20200;-60
2021/11/18 07:25:41;;;;;;;10.52;5.35;;;6.70;99.90;;;;;;5032355;28;20551;-60
2021/11/18 07:28:11;;;;;;;14.52;6.00;;;6.70;99.90;;;;;;5067229;28;20248;-61
2021/11/18 07:30:40;;;;;;;15.73;5.88;;;6.70;99.90;;;;;;5063670;28;20216;-61
2021/11/18 07:33:08;;;;;;;17.10;6.20;;;6.80;99.90;;;;;;5053089;28;20205;-60
2021/11/18 07:35:37;;;;;;;15.23;6.00;;;6.70;99.90;;;;;;5048009;28;20697;-60
2021/11/18 07:38:06;;;;;;;14.60;6.70;;;6.80;99.90;;;;;;5049319;28;20192;-62
2021/11/18 07:40:41;;;;;;;10.23;6.95;;;6.80;99.90;;;;;;5072332;28;20226;-62
2021/11/18 07:43:20;;;;;;;10.57;6.40;;;6.80;99.90;;;;;;5071170;28;20252;-60
2021/11/18 07:45:57;;;;;;;18.85;6.50;;;6.90;99.90;;;;;;5073208;28;20230;-61
2021/11/18 07:48:40;;;;;;;13.70;6.72;;;7.00;99.90;;;;;;5072536;28;20187;-61
2021/11/18 07:51:11;;;;;;;15.85;6.28;;;7.00;99.90;;;;;;5070568;28;20679;-60
2021/11/18 07:53:40;;;;;;;19.13;6.82;;;7.10;99.90;;;;;;5039950;28;20528;-60
2021/11/18 07:56:11;;;;;;;23.67;6.20;;;7.10;99.90;;;;;;5063470;28;20227;-60
2021/11/18 07:58:39;;;;;;;12.63;5.97;;;7.10;99.90;;;;;;5049102;28;20250;-62
2021/11/18 08:01:09;;;;;;;12.17;6.53;;;7.20;99.90;;;;;;5043866;28;20214;-60
2021/11/18 08:03:38;;;;;;;14.85;6.07;;;7.30;99.90;;;;;;5052364;28;20467;-60
2021/11/18 08:06:19;;;;;;;12.65;5.55;;;7.40;99.90;;;;;;5065934;28;20642;-60
2021/11/18 08:08:54;;;;;;;14.27;6.17;;;7.40;99.90;;;;;;5052233;28;20206;-61
2021/11/18 08:11:36;;;;;;;12.43;5.80;;;7.50;99.90;;;;;;5054742;28;20474;-59
2021/11/18 08:14:07;;;;;;;9.80;6.20;;;7.60;99.90;;;;;;5069356;28;20436;-60
2021/11/18 08:16:37;;;;;;;12.53;5.60;;;7.60;99.90;;;;;;5051936;28;21061;-61
2021/11/18 08:19:06;;;;;;;6.37;3.97;;;7.70;99.90;;;;;;5052220;28;20426;-60
2021/11/18 08:21:38;;;;;;;20.57;5.63;;;7.80;99.90;;;;;;5066516;28;20485;-60
2021/11/18 08:24:09;;;;;;;12.43;4.70;;;7.90;99.90;;;;;;5052901;28;20545;-61
2021/11/18 08:26:40;;;;;;;12.93;5.40;;;7.90;99.90;;;;;;5038135;28;20474;-60
2021/11/18 08:29:16;;;;;;;7.07;4.10;;;8.00;99.90;;;;;;5072595;28;20445;-61
2021/11/18 08:31:45;;;;;;;14.47;5.37;;;8.00;99.90;;;;;;5071789;28;20916;-60
2021/11/18 08:34:20;;;;;;;14.13;4.90;;;8.00;99.90;;;;;;5072435;28;20479;-60
2021/11/18 08:36:51;;;;;;;9.73;4.93;;;8.10;99.90;;;;;;5069182;28;20492;-59
2021/11/18 08:39:22;;;;;;;15.83;5.50;;;8.10;99.90;;;;;;5051145;28;20514;-60
2021/11/18 08:41:55;;;;;;;14.40;6.77;;;8.20;99.90;;;;;;5045965;28;20437;-60
2021/11/18 08:44:27;;;;;;;14.20;4.57;;;8.30;99.90;;;;;;5031140;28;20463;-59
2021/11/18 08:46:57;;;;;;;13.80;4.93;;;8.40;99.90;;;;;;5031476;28;20973;-59
2021/11/18 08:49:28;;;;;;;16.23;5.70;;;8.50;99.90;;;;;;5032778;28;20463;-61
2021/11/18 08:52:06;;;;;;;7.70;5.03;;;8.40;99.90;;;;;;5052540;28;20927;-60
2021/11/18 08:54:40;;;;;;;10.97;5.40;;;8.50;99.90;;;;;;5050556;28;20988;-60
2021/11/18 08:57:11;;;;;;;11.63;5.00;;;8.50;99.90;;;;;;5057671;28;20462;-61
2021/11/18 09:00:10;;;;;;;14.07;4.87;;;8.60;99.90;;;;;;5057223;28;20470;-60
2021/11/18 09:02:47;;;;;;;9.07;4.30;;;8.70;99.90;;;;;;5051191;28;20438;-60
2021/11/18 09:05:18;;;;;;;11.40;4.60;;;8.80;99.90;;;;;;5056390;28;20825;-60
2021/11/18 09:07:46;;;;;;;15.03;5.37;;;8.80;99.90;;;;;;5070985;28;20438;-60
2021/11/18 09:10:15;;;;;;;14.03;5.17;;;8.90;99.90;;;;;;5071631;28;20462;-60
2021/11/18 09:12:47;;;;;;;18.10;5.90;;;9.00;99.90;;;;;;5069270;28;20446;-60
2021/11/18 09:15:18;;;;;;;9.10;4.27;;;9.10;99.90;;;;;;5070146;28;20465;-59
2021/11/18 09:17:47;;;;;;;11.83;4.23;;;9.20;99.90;;;;;;5071046;28;20457;-60
2021/11/18 09:20:31;;;;;;;11.97;5.80;;;9.30;99.90;;;;;;5068397;28;20470;-60
2021/11/18 09:22:59;;;;;;;15.30;5.70;;;9.30;99.90;;;;;;5070473;28;20433;-60
2021/11/18 09:25:41;;;;;;;9.17;4.77;;;9.40;99.90;;;;;;5070027;28;20457;-60
2021/11/18 09:28:14;;;;;;;15.37;4.90;;;9.40;99.90;;;;;;5070550;28;20442;-60
2021/11/18 09:30:54;;;;;;;13.93;5.00;;;9.40;99.90;;;;;;5069797;28;20995;-60
2021/11/18 09:33:23;;;;;;;9.33;4.40;;;9.40;99.90;;;;;;5070850;28;20594;-60
2021/11/18 09:35:55;;;;;;;15.90;4.60;;;9.40;99.90;;;;;;5069724;28;20879;-60
2021/11/18 09:38:26;;;;;;;9.30;4.00;;;9.50;99.90;;;;;;5067178;28;20435;-60
2021/11/18 09:41:00;;;;;;;12.73;3.80;;;9.50;99.90;;;;;;5050012;28;20460;-60
2021/11/18 09:43:59;;;;;;;9.93;3.80;;;9.50;99.90;;;;;;5069080;28;20491;-60
2021/11/18 09:46:48;;;;;;;8.87;3.37;;;9.50;99.90;;;;;;5069831;28;20462;-59
2021/11/18 09:49:40;;;;;;;10.53;5.37;;;9.50;99.90;;;;;;5070030;28;20437;-61
2021/11/18 09:52:15;;;;;;;12.37;5.40;;;9.50;99.90;;;;;;5058291;28;20504;-61
2021/11/18 09:54:51;;;;;;;16.60;4.83;;;9.50;99.90;;;;;;5049450;28;20467;-60
2021/11/18 09:58:11;;;;;;;16.07;4.43;;;9.50;99.90;;;;;;5047752;28;20499;-60
2021/11/18 10:01:00;;;;;;;15.27;4.23;;;9.50;99.90;;;;;;4992211;28;20464;-60
2021/11/18 10:03:39;;;;;;;13.90;4.43;;;9.60;99.90;;;;;;4992822;28;20437;-60
2021/11/18 10:06:31;;;;;;;13.87;5.10;;;9.60;99.90;;;;;;5029033;28;20477;-60
2021/11/18 10:09:11;;;;;;;8.87;4.40;;;9.70;99.90;;;;;;5047763;28;20845;-60
2021/11/18 10:11:50;;;;;;;11.90;5.43;;;9.80;99.90;;;;;;5053572;28;20460;-60
2021/11/18 10:14:48;;;;;;;9.40;4.73;;;9.80;99.90;;;;;;5069595;28;20528;-61
2021/11/18 10:17:25;;;;;;;11.63;4.87;;;9.90;99.90;;;;;;5070073;28;20474;-60
2021/11/18 10:20:07;;;;;;;16.10;5.77;;;9.90;99.90;;;;;;5068364;28;20839;-60
2021/11/18 10:22:39;;;;;;;11.20;5.00;;;10.00;99.90;;;;;;5052344;28;20881;-60
2021/11/18 10:25:11;;;;;;;18.23;5.00;;;10.00;99.90;;;;;;5050156;28;21003;-60
2021/11/18 10:27:43;;;;;;;11.27;4.40;;;10.00;99.90;;;;;;5050899;28;20463;-60
2021/11/18 10:30:22;;;;;;;14.53;5.03;;;10.10;99.90;;;;;;5050917;28;20528;-61
2021/11/18 10:33:00;;;;;;;11.50;4.87;;;10.10;99.90;;;;;;5049743;28;20497;-60
2021/11/18 10:35:35;;;;;;;13.57;4.37;;;10.20;99.90;;;;;;5052645;28;20525;-60
2021/11/18 10:38:18;;;;;;;21.13;5.33;;;10.20;99.90;;;;;;5017397;28;20507;-59
2021/11/18 10:40:58;;;;;;;17.50;5.30;;;10.20;99.90;;;;;;5033464;28;20518;-61
2021/11/18 10:43:30;;;;;;;15.20;5.10;;;10.20;99.90;;;;;;5053714;28;20520;-60
2021/11/18 10:46:12;;;;;;;12.60;5.20;;;10.20;99.90;;;;;;5052860;28;20984;-60
2021/11/18 10:48:48;;;;;;;10.20;4.77;;;10.20;99.90;;;;;;5054625;28;20770;-59
2021/11/18 10:51:26;;;;;;;13.93;6.10;;;10.30;99.90;;;;;;5068222;28;20526;-60
2021/11/18 10:53:58;;;;;;;13.07;4.93;;;10.30;99.90;;;;;;5074888;28;20410;-60
2021/11/18 10:56:43;;;;;;;15.00;4.90;;;10.40;99.90;;;;;;5069529;28;20788;-59
2021/11/18 10:59:15;;;;;;;11.07;4.50;;;10.40;99.90;;;;;;5053142;28;20439;-61
2021/11/18 11:01:45;;;;;;;15.53;5.63;;;10.40;99.90;;;;;;5054832;28;20429;-61
2021/11/18 11:04:34;;;;;;;14.37;6.07;;;10.40;99.90;;;;;;5053930;28;20434;-61
2021/11/18 11:07:04;;;;;;;8.63;5.00;;;10.50;99.90;;;;;;5054117;28;20467;-60
2021/11/18 11:09:35;;;;;;;13.20;5.60;;;10.50;99.90;;;;;;5052590;28;20545;-60
2021/11/18 11:12:27;;;;;;;10.23;4.30;;;10.50;99.90;;;;;;5049404;28;20440;-61
2021/11/18 11:15:19;;;;;;;9.20;5.40;;;10.50;99.90;;;;;;5049156;28;20569;-60
2021/11/18 11:18:17;;;;;;;20.43;7.17;;;10.60;99.90;;;;;;5053319;28;20477;-59
2021/11/18 11:21:00;;;;;;;10.10;5.00;;;10.60;99.90;;;;;;5057145;28;20477;-61
2021/11/18 11:23:37;;;;;;;11.53;4.27;;;10.70;99.90;;;;;;5073039;28;20823;-59
2021/11/18 11:27:02;;;;;;;11.10;4.47;;;10.70;99.90;;;;;;5073349;28;20848;-59
2021/11/18 11:29:38;;;;;;;11.27;5.70;;;10.80;99.90;;;;;;5032524;28;20464;-60
2021/11/18 11:32:22;;;;;;;16.37;5.27;;;10.70;99.90;;;;;;5038669;28;20431;-60
2021/11/18 11:35:05;;;;;;;13.00;6.03;;;10.80;99.90;;;;;;5064449;28;20549;-59
2021/11/18 11:38:19;;;;;;;9.50;4.27;;;10.90;99.90;;;;;;5063338;28;20458;-59
2021/11/18 11:40:59;;;;;;;12.63;5.07;;;10.80;99.90;;;;;;5061179;28;20493;-59
2021/11/18 11:43:40;;;;;;;18.57;5.43;;;10.80;99.90;;;;;;5048838;28;20811;-60
2021/11/18 11:46:25;;;;;;;16.20;5.43;;;10.90;99.90;;;;;;5031113;28;20472;-59
2021/11/18 11:49:18;;;;;;;15.50;6.03;;;11.00;99.90;;;;;;5034771;28;20428;-59
2021/11/18 11:52:01;;;;;;;18.10;5.90;;;11.10;99.90;;;;;;5045598;28;20521;-58
2021/11/18 11:55:04;;;;;;;14.27;5.90;;;11.10;99.90;;;;;;5031881;28;20543;-59
2021/11/18 11:57:42;;;;;;;15.63;4.60;;;11.00;99.90;;;;;;5055796;28;20473;-59
2021/11/18 12:00:26;;;;;;;16.53;5.40;;;11.00;99.90;;;;;;5071902;28;20476;-60
2021/11/18 12:03:03;;;;;;;9.00;4.40;;;10.90;99.90;;;;;;5073592;28;20458;-61
2021/11/18 12:05:38;;;;;;;15.70;5.07;;;10.90;99.90;;;;;;5061157;28;20828;-59
2021/11/18 12:08:12;;;;;;;8.20;4.63;;;10.90;99.90;;;;;;5053592;28;20426;-60
2021/11/18 12:10:46;;;;;;;13.87;5.90;;;10.90;99.90;;;;;;5052940;28;20528;-60
2021/11/18 12:13:27;;;;;;;18.17;4.47;;;10.90;99.90;;;;;;5068139;28;20553;-59
2021/11/18 12:15:59;;;;;;;17.90;6.30;;;10.90;99.90;;;;;;5072609;28;20477;-59
2021/11/18 12:18:53;;;;;;;9.20;5.17;;;10.90;99.90;;;;;;5073470;28;20437;-59
2021/11/18 12:21:23;;;;;;;13.20;5.80;;;10.90;99.90;;;;;;5064361;28;20478;-60
2021/11/18 12:24:19;;;;;;;15.57;6.27;;;10.90;99.90;;;;;;5052688;28;20490;-60
2021/11/18 12:27:00;;;;;;;11.80;4.73;;;10.90;99.90;;;;;;5056949;28;20470;-59
2021/11/18 12:29:39;;;;;;;11.80;5.80;;;10.90;99.90;;;;;;5064096;28;20457;-59
2021/11/18 12:32:29;;;;;;;17.37;5.37;;;11.00;99.90;;;;;;5052613;28;20431;-60
2021/11/18 12:35:06;;;;;;;12.37;4.33;;;11.00;99.90;;;;;;5032150;28;20451;-59
2021/11/18 12:37:57;;;;;;;20.10;6.90;;;11.20;99.90;;;;;;5056495;28;20500;-59
2021/11/18 12:40:59;;;;;;;15.20;4.27;;;11.20;99.90;;;;;;5070942;28;20545;-59
2021/11/18 12:44:02;;;;;;;11.97;5.30;;;11.20;99.90;;;;;;5032241;28;20797;-60
2021/11/18 12:46:33;;;;;;;22.03;5.50;;;11.20;99.90;;;;;;5032224;28;20479;-60
2021/11/18 12:49:15;;;;;;;12.90;4.97;;;11.20;99.90;;;;;;5037447;28;20452;-60
2021/11/18 12:52:13;;;;;;;19.67;4.70;;;11.30;99.90;;;;;;5071591;28;20450;-61
2021/11/18 12:55:00;;;;;;;10.57;4.37;;;11.30;99.90;;;;;;5069737;28;20523;-59
2021/11/18 12:57:33;;;;;;;19.83;5.23;;;11.30;99.90;;;;;;5069973;28;20466;-60
2021/11/18 13:00:09;;;;;;;13.30;4.30;;;11.30;99.90;;;;;;5070784;28;20467;-60
2021/11/18 13:02:51;;;;;;;9.87;4.83;;;11.30;99.90;;;;;;5072562;28;20819;-59
2021/11/18 13:05:44;;;;;;;9.37;4.60;;;11.30;99.90;;;;;;5067370;28;20502;-59
2021/11/18 13:08:58;;;;;;;18.30;5.37;;;11.20;99.90;;;;;;5047514;28;20463;-59
2021/11/18 13:11:48;;;;;;;14.47;4.73;;;11.10;99.90;;;;;;5051334;28;20537;-61
2021/11/18 13:14:26;;;;;;;9.77;4.63;;;11.10;99.90;;;;;;5062789;28;20486;-60
2021/11/18 13:17:03;;;;;;;13.20;4.80;;;11.00;99.90;;;;;;5052429;28;20481;-60
2021/11/18 13:19:53;;;;;;;12.67;5.13;;;11.00;99.90;;;;;;5049619;28;20871;-60
2021/11/18 13:22:28;;;;;;;8.37;4.60;;;11.00;99.90;;;;;;5049774;28;21003;-60
2021/11/18 13:25:19;;;;;;;13.17;5.70;;;10.90;99.90;;;;;;5051405;28;20588;-61